Bethel Airport (BET/PABE)




Flight Aircraft Arriving
GRZ5379 SF34
PAKN - King Salmon Airport
United StatesAlaska King Salmon, Alaska
Flight Aircraft Departing
GRZ5378 SF34
PAKN - King Salmon Airport
United StatesAlaska King Salmon, Alaska
Airport Information
Location: Bethel, US
Coordinates: 60.7786 / -161.837
Elevation:
Time Offset:
Local Time:
UTC Time:
Jet A Price: $0.92/lbs

Current Weather
METAR: PABE 271011Z AUTO 36015KT 10SM OVC010 M13/M14 A2953 RMK AO2 CIG 008V011 T11281144 TSNO
TAF: PABE 270757Z 2708/2806 02015KT 3SM BR OVC015 TEMPO 2708/2711 1 1/2SM -FZRA BR FM271200 01010KT 3SM BR OVC025 FM271800 36015KT 5SM BR OVC015

Recent Arrivals
Date Flight Type Depart
12/27/2020 GRZ5378 SF34 King Salmon Airport (PAKN)
Recent Departures
Date Flight Type Arrive
01/30/2021 GRZ5379 SF34 King Salmon Airport (PAKN)